createdAt,value
2019-03-19T00:00:27.315Z,0.00
2019-03-19T00:01:27.144Z,0.00
2019-03-19T00:02:27.116Z,0.00
2019-03-19T00:03:27.074Z,0.00
2019-03-19T00:04:27.149Z,0.00
2019-03-19T00:05:27.015Z,0.00
2019-03-19T00:06:27.154Z,0.00
2019-03-19T00:07:26.957Z,0.00
2019-03-19T00:08:26.927Z,0.00
2019-03-19T00:09:27.076Z,0.00
2019-03-19T00:10:26.864Z,0.00
2019-03-19T00:11:26.986Z,0.00
2019-03-19T00:12:26.805Z,0.00
2019-03-19T00:13:26.776Z,0.00
2019-03-19T00:14:26.735Z,0.00
2019-03-19T00:15:27.849Z,0.00
2019-03-19T00:16:26.687Z,0.00
2019-03-19T00:17:26.825Z,0.00
2019-03-19T00:18:26.617Z,0.00
2019-03-19T00:19:26.584Z,0.00
2019-03-19T00:20:26.744Z,0.00
2019-03-19T00:21:26.518Z,0.00
2019-03-19T00:22:26.668Z,0.00
2019-03-19T00:23:26.453Z,0.00
2019-03-19T00:24:26.425Z,0.00
2019-03-19T00:25:30.252Z,0.00
2019-03-19T00:26:26.477Z,0.00
2019-03-19T00:27:26.337Z,0.00
2019-03-19T00:28:26.505Z,0.00
2019-03-19T00:29:26.267Z,0.00
2019-03-19T00:30:26.233Z,0.00
2019-03-19T00:31:26.205Z,0.00
2019-03-19T00:32:26.321Z,0.00
2019-03-19T00:33:26.187Z,0.00
2019-03-19T00:34:26.230Z,0.00
2019-03-19T00:35:26.074Z,0.00
2019-03-19T00:36:26.260Z,0.00
2019-03-19T00:37:26.016Z,0.00
2019-03-19T00:38:26.154Z,0.00
2019-03-19T00:39:25.954Z,0.00
2019-03-19T00:40:26.064Z,0.00
2019-03-19T00:41:26.074Z,0.00
2019-03-19T00:42:25.862Z,0.00
2019-03-19T00:43:25.982Z,0.00
2019-03-19T00:44:25.792Z,0.00
2019-03-19T00:45:25.904Z,0.00
2019-03-19T00:46:25.732Z,0.00
2019-03-19T00:47:25.704Z,0.00
2019-03-19T00:48:25.818Z,0.00
2019-03-19T00:49:25.643Z,0.00
2019-03-19T00:50:25.824Z,0.00
2019-03-19T00:51:25.584Z,0.00
2019-03-19T00:52:25.543Z,0.00
2019-03-19T00:53:25.514Z,0.00
2019-03-19T00:54:25.554Z,0.00
2019-03-19T00:55:25.453Z,0.00
2019-03-19T00:56:25.464Z,0.00
2019-03-19T00:57:25.395Z,0.00
2019-03-19T00:58:25.365Z,0.00
2019-03-19T00:59:26.409Z,0.00
2019-03-19T01:00:25.294Z,0.00
2019-03-19T01:01:25.293Z,0.00
2019-03-19T01:02:25.243Z,0.00
2019-03-19T01:03:25.210Z,0.00
2019-03-19T01:04:25.171Z,0.00
2019-03-19T01:05:25.213Z,0.00
2019-03-19T01:06:25.116Z,0.00
2019-03-19T01:07:25.135Z,0.00
2019-03-19T01:08:25.045Z,0.00
2019-03-19T01:09:25.011Z,0.00
2019-03-19T01:10:25.043Z,0.00
2019-03-19T01:11:24.943Z,0.00
2019-03-19T01:12:24.968Z,0.00
2019-03-19T01:13:24.886Z,0.00
2019-03-19T01:14:24.977Z,0.00
2019-03-19T01:15:24.825Z,0.00
2019-03-19T01:16:24.883Z,0.00
2019-03-19T01:17:24.765Z,0.00
2019-03-19T01:18:24.808Z,0.00
2019-03-19T01:19:24.693Z,0.00
2019-03-19T01:20:24.662Z,0.00
2019-03-19T01:21:24.646Z,0.00
2019-03-19T01:22:24.723Z,0.00
2019-03-19T01:23:24.573Z,0.00
2019-03-19T01:24:24.634Z,0.00
2019-03-19T01:25:24.513Z,0.00
2019-03-19T01:26:24.488Z,0.00
2019-03-19T01:27:24.554Z,0.00
2019-03-19T01:28:24.428Z,0.00
2019-03-19T01:29:24.463Z,0.00
2019-03-19T01:30:24.344Z,0.00
2019-03-19T01:31:24.313Z,0.00
2019-03-19T01:32:24.282Z,0.00
2019-03-19T01:33:24.394Z,0.00
2019-03-19T01:34:24.223Z,0.00
2019-03-19T01:35:24.304Z,0.00
2019-03-19T01:36:24.163Z,0.00
2019-03-19T01:37:24.134Z,0.00
2019-03-19T01:38:24.223Z,0.00
2019-03-19T01:39:24.063Z,0.00
2019-03-19T01:40:24.146Z,0.00
2019-03-19T01:41:24.007Z,0.00
2019-03-19T01:42:23.964Z,0.00
2019-03-19T01:43:23.954Z,0.00
2019-03-19T01:44:24.061Z,0.00
2019-03-19T01:45:23.873Z,0.00
2019-03-19T01:46:23.971Z,0.00
2019-03-19T01:47:23.816Z,0.00
2019-03-19T01:48:23.783Z,0.00
2019-03-19T01:49:24.814Z,0.00
2019-03-19T01:50:23.713Z,0.00
2019-03-19T01:51:23.802Z,0.00
2019-03-19T01:52:23.654Z,0.00
2019-03-19T01:53:23.630Z,0.00
2019-03-19T01:54:23.594Z,0.00
2019-03-19T01:55:25.508Z,0.00
2019-03-19T01:56:23.532Z,0.00
2019-03-19T01:57:23.642Z,0.00
2019-03-19T01:58:23.466Z,0.00
2019-03-19T01:59:23.432Z,0.00
2019-03-19T02:00:23.395Z,0.00
2019-03-19T02:01:23.466Z,0.00
2019-03-19T02:02:23.332Z,0.00
2019-03-19T02:03:24.407Z,0.00
2019-03-19T02:04:23.273Z,0.00
2019-03-19T02:05:23.410Z,0.00
2019-03-19T02:06:23.211Z,0.00
2019-03-19T02:07:23.304Z,0.00
2019-03-19T02:08:23.154Z,0.00
2019-03-19T02:09:23.215Z,0.00
2019-03-19T02:10:23.222Z,0.00
2019-03-19T02:11:23.120Z,0.00
2019-03-19T02:12:23.139Z,0.00
2019-03-19T02:13:22.983Z,0.00
2019-03-19T02:14:23.044Z,0.00
2019-03-19T02:15:22.924Z,0.00
2019-03-19T02:16:22.893Z,0.00
2019-03-19T02:17:22.966Z,0.00
2019-03-19T02:18:22.837Z,0.00
2019-03-19T02:19:22.973Z,0.00
2019-03-19T02:20:22.774Z,0.00
2019-03-19T02:21:22.734Z,0.00
2019-03-19T02:22:22.707Z,0.00
2019-03-19T02:23:22.802Z,0.00
2019-03-19T02:24:22.634Z,0.00
2019-03-19T02:25:22.714Z,0.00
2019-03-19T02:26:22.573Z,0.00
2019-03-19T02:27:29.901Z,0.00
2019-03-19T02:29:26.643Z,0.00
2019-03-19T02:30:26.535Z,0.00
2019-03-19T02:32:30.494Z,0.00
2019-03-19T02:33:30.441Z,0.00
2019-03-19T02:35:34.471Z,0.00
2019-03-19T02:36:34.352Z,0.00
2019-03-19T02:38:38.378Z,0.00
2019-03-19T02:39:38.265Z,0.00
2019-03-19T02:41:42.283Z,0.00
2019-03-19T02:42:42.178Z,0.00
2019-03-19T02:44:46.194Z,0.00
2019-03-19T02:45:46.088Z,0.00
2019-03-19T02:47:50.091Z,0.00
2019-03-19T02:48:49.992Z,0.00
2019-03-19T02:50:54.004Z,0.00
2019-03-19T02:51:53.905Z,0.00
2019-03-19T02:53:57.913Z,0.00
2019-03-19T02:54:57.893Z,0.00
2019-03-19T02:57:01.822Z,0.00
2019-03-19T02:58:01.723Z,0.00
2019-03-19T03:00:05.749Z,0.00
2019-03-19T03:01:05.633Z,0.00
2019-03-19T03:03:09.641Z,0.00
2019-03-19T03:04:09.547Z,0.00
2019-03-19T03:06:02.443Z,0.00
2019-03-19T03:07:02.413Z,0.00
2019-03-19T03:09:06.404Z,0.00
2019-03-19T03:10:06.303Z,0.00
2019-03-19T03:12:10.355Z,0.00
2019-03-19T03:13:10.222Z,0.00
2019-03-19T03:15:14.262Z,0.00
2019-03-19T03:16:14.124Z,0.00
2019-03-19T03:18:18.145Z,0.00
2019-03-19T03:19:18.039Z,0.00
2019-03-19T03:21:22.059Z,0.00
2019-03-19T03:22:21.941Z,0.00
2019-03-19T03:24:25.955Z,0.00
2019-03-19T03:25:25.873Z,0.00
2019-03-19T03:27:29.888Z,0.00
2019-03-19T03:28:29.832Z,0.00
2019-03-19T03:30:33.806Z,0.00
2019-03-19T03:31:33.679Z,0.00
2019-03-19T03:33:37.685Z,0.00
2019-03-19T03:34:37.583Z,0.00
2019-03-19T03:36:30.531Z,0.00
2019-03-19T03:37:30.432Z,0.00
2019-03-19T03:39:34.442Z,0.00
2019-03-19T03:40:34.343Z,0.00
2019-03-19T03:42:38.360Z,0.00
2019-03-19T03:43:38.252Z,0.00
2019-03-19T03:45:42.272Z,0.00
2019-03-19T03:46:42.173Z,0.00
2019-03-19T03:48:46.172Z,0.00
2019-03-19T03:49:46.096Z,0.00
2019-03-19T03:51:50.082Z,0.00
2019-03-19T03:52:49.984Z,0.00
2019-03-19T03:54:54.024Z,0.00
2019-03-19T03:55:53.892Z,0.00
2019-03-19T03:57:57.910Z,0.00
2019-03-19T03:59:00.921Z,0.00
2019-03-19T04:01:01.819Z,0.00
2019-03-19T04:02:01.711Z,0.00
2019-03-19T04:04:05.745Z,0.00
2019-03-19T04:05:05.623Z,0.00
2019-03-19T04:07:09.639Z,0.00
2019-03-19T04:08:09.532Z,0.00
2019-03-19T04:10:13.552Z,0.00
2019-03-19T04:11:13.461Z,0.00
2019-03-19T04:13:17.420Z,0.00
2019-03-19T04:14:17.423Z,0.00
2019-03-19T04:16:10.322Z,0.00
2019-03-19T04:17:10.224Z,0.00
2019-03-19T04:19:15.140Z,0.00
2019-03-19T04:20:15.048Z,0.00
2019-03-19T04:22:19.056Z,0.00
2019-03-19T04:23:18.942Z,0.00
2019-03-19T04:25:22.962Z,0.00
2019-03-19T04:26:22.863Z,0.00
2019-03-19T04:28:26.871Z,0.00
2019-03-19T04:29:26.761Z,0.00
2019-03-19T04:31:30.792Z,0.00
2019-03-19T04:32:30.671Z,0.00
2019-03-19T04:34:34.683Z,0.00
2019-03-19T04:35:34.580Z,0.00
2019-03-19T04:37:38.601Z,0.00
2019-03-19T04:38:38.504Z,0.00
2019-03-19T04:40:42.526Z,0.00
2019-03-19T04:41:42.404Z,0.00
2019-03-19T04:43:46.455Z,0.00
2019-03-19T04:44:46.314Z,0.00
2019-03-19T04:46:39.199Z,0.00
2019-03-19T04:47:39.241Z,0.00
2019-03-19T04:49:43.182Z,0.00
2019-03-19T04:50:43.090Z,0.00
2019-03-19T04:52:47.094Z,0.00
2019-03-19T04:53:46.992Z,0.00
2019-03-19T04:55:51.000Z,0.00
2019-03-19T04:56:50.910Z,0.00
2019-03-19T04:58:54.912Z,0.00
2019-03-19T04:59:54.813Z,0.00
2019-03-19T05:00:54.902Z,0.00
2019-03-19T05:01:54.749Z,0.00
2019-03-19T05:02:54.801Z,0.00
2019-03-19T05:03:54.697Z,0.00
2019-03-19T05:04:54.717Z,0.00
2019-03-19T05:05:54.604Z,0.00
2019-03-19T05:06:54.624Z,0.00
2019-03-19T05:07:54.552Z,0.00
2019-03-19T05:08:54.521Z,0.00
2019-03-19T05:09:54.478Z,0.00
2019-03-19T05:10:54.554Z,0.00
2019-03-19T05:11:54.433Z,0.00
2019-03-19T05:12:54.458Z,0.00
2019-03-19T05:13:54.350Z,0.00
2019-03-19T05:14:54.332Z,0.00
2019-03-19T05:15:54.370Z,0.00
2019-03-19T05:16:54.251Z,4.00
2019-03-19T05:17:54.314Z,0.00
2019-03-19T05:18:54.192Z,0.00
2019-03-19T05:19:54.149Z,4.00
2019-03-19T05:20:54.121Z,0.00
2019-03-19T05:21:54.200Z,4.00
2019-03-19T05:22:54.061Z,4.00
2019-03-19T05:23:54.111Z,4.00
2019-03-19T05:24:53.991Z,8.00
2019-03-19T05:25:53.959Z,8.00
2019-03-19T05:26:54.024Z,12.00
2019-03-19T05:27:53.891Z,8.00
2019-03-19T05:28:53.929Z,12.00
2019-03-19T05:29:53.833Z,12.00
2019-03-19T05:30:53.808Z,16.00
2019-03-19T05:31:53.772Z,20.00
2019-03-19T05:32:53.762Z,20.00
2019-03-19T05:33:53.705Z,24.00
2019-03-19T05:34:53.774Z,24.00
2019-03-19T05:35:53.638Z,28.00
2019-03-19T05:36:53.612Z,28.00
2019-03-19T05:37:53.681Z,32.00
2019-03-19T05:38:53.542Z,32.00
2019-03-19T05:39:53.602Z,36.00
2019-03-19T05:40:53.481Z,44.00
2019-03-19T05:41:53.503Z,48.00
2019-03-19T05:42:53.405Z,52.00
2019-03-19T05:43:53.411Z,60.00
2019-03-19T05:44:53.351Z,64.00
2019-03-19T05:45:53.477Z,72.00
2019-03-19T05:46:53.269Z,80.00
2019-03-19T05:47:53.256Z,88.00
2019-03-19T05:48:53.210Z,92.00
2019-03-19T05:49:53.252Z,104.00
2019-03-19T05:50:53.140Z,112.00
2019-03-19T05:51:53.174Z,120.00
2019-03-19T05:52:53.082Z,128.00
2019-03-19T05:53:53.066Z,140.00
2019-03-19T05:54:53.071Z,152.00
2019-03-19T05:55:52.979Z,160.00
2019-03-19T05:56:52.983Z,172.00
2019-03-19T05:57:52.919Z,188.00
2019-03-19T05:58:52.912Z,200.00
2019-03-19T05:59:52.855Z,216.00
2019-03-19T06:00:52.907Z,228.00
2019-03-19T06:01:52.790Z,240.00
2019-03-19T06:02:52.832Z,256.00
2019-03-19T06:03:52.723Z,264.00
2019-03-19T06:04:52.713Z,272.00
2019-03-19T06:05:52.732Z,280.00
2019-03-19T06:06:52.621Z,288.00
2019-03-19T06:07:52.642Z,296.00
2019-03-19T06:08:52.572Z,304.00
2019-03-19T06:09:52.532Z,316.00
2019-03-19T06:10:52.491Z,332.00
2019-03-19T06:11:52.562Z,344.00
2019-03-19T06:12:52.429Z,352.00
2019-03-19T06:13:52.482Z,364.00
2019-03-19T06:14:52.394Z,376.00
2019-03-19T06:15:52.333Z,388.00
2019-03-19T06:16:52.392Z,392.00
2019-03-19T06:17:52.277Z,396.00
2019-03-19T06:18:52.305Z,408.00
2019-03-19T06:19:52.209Z,416.00
2019-03-19T06:20:52.211Z,428.00
2019-03-19T06:21:52.153Z,440.00
2019-03-19T06:22:52.119Z,440.00
2019-03-19T06:23:52.074Z,444.00
2019-03-19T06:24:52.141Z,452.00
2019-03-19T06:25:52.011Z,464.00
2019-03-19T06:26:51.974Z,488.00
2019-03-19T06:27:59.968Z,508.00
2019-03-19T06:28:51.951Z,536.00
2019-03-19T06:29:51.875Z,552.00
2019-03-19T06:30:51.863Z,568.00
2019-03-19T06:31:51.822Z,584.00
2019-03-19T06:32:51.882Z,596.00
2019-03-19T06:33:51.743Z,616.00
2019-03-19T06:34:51.790Z,640.00
2019-03-19T06:35:51.682Z,648.00
2019-03-19T06:36:51.705Z,664.00
2019-03-19T06:37:51.701Z,684.00
2019-03-19T06:38:51.583Z,720.00
2019-03-19T06:39:51.617Z,756.00
2019-03-19T06:40:51.522Z,796.00
2019-03-19T06:41:51.531Z,804.00
2019-03-19T06:42:51.453Z,788.00
2019-03-19T06:43:51.432Z,772.00
2019-03-19T06:44:51.461Z,776.00
2019-03-19T06:45:51.360Z,792.00
2019-03-19T06:46:51.353Z,816.00
2019-03-19T06:47:51.305Z,844.00
2019-03-19T06:48:51.263Z,860.00
2019-03-19T06:49:51.230Z,872.00
2019-03-19T06:50:51.285Z,868.00
2019-03-19T06:51:51.165Z,856.00
2019-03-19T06:52:51.183Z,856.00
2019-03-19T06:53:51.113Z,880.00
2019-03-19T06:54:51.074Z,896.00
2019-03-19T06:55:51.041Z,932.00
2019-03-19T06:56:51.113Z,980.00
2019-03-19T06:57:50.974Z,980.00
2019-03-19T06:58:51.023Z,964.00
2019-03-19T06:59:50.903Z,944.00
2019-03-19T07:00:50.933Z,924.00
2019-03-19T07:01:50.840Z,916.00
2019-03-19T07:02:50.841Z,916.00
2019-03-19T07:03:50.782Z,912.00
2019-03-19T07:04:50.858Z,908.00
2019-03-19T07:05:50.714Z,904.00
2019-03-19T07:06:50.863Z,896.00
2019-03-19T07:07:50.641Z,916.00
2019-03-19T07:08:50.772Z,936.00
2019-03-19T07:09:50.582Z,952.00
2019-03-19T07:10:50.692Z,964.00
2019-03-19T07:11:50.523Z,968.00
2019-03-19T07:12:50.708Z,972.00
2019-03-19T07:13:50.456Z,984.00
2019-03-19T07:14:50.531Z,1012.00
2019-03-19T07:15:50.392Z,1028.00
2019-03-19T07:16:50.369Z,1044.00
2019-03-19T07:17:50.323Z,1056.00
2019-03-19T07:18:50.330Z,1072.00
2019-03-19T07:19:50.273Z,1052.00
2019-03-19T07:20:50.361Z,1028.00
2019-03-19T07:21:50.214Z,1012.00
2019-03-19T07:22:50.181Z,1008.00
2019-03-19T07:23:50.270Z,1008.00
2019-03-19T07:24:50.103Z,1012.00
2019-03-19T07:25:50.205Z,1024.00
2019-03-19T07:26:50.057Z,1024.00
2019-03-19T07:27:50.013Z,1024.00
2019-03-19T07:28:49.973Z,1032.00
2019-03-19T07:29:50.003Z,1036.00
2019-03-19T07:30:49.911Z,1040.00
2019-03-19T07:31:50.015Z,1044.00
2019-03-19T07:32:49.856Z,1052.00
2019-03-19T07:33:49.829Z,1060.00
2019-03-19T07:34:49.832Z,1068.00
2019-03-19T07:35:49.760Z,1072.00
2019-03-19T07:36:49.851Z,1080.00
2019-03-19T07:37:49.696Z,1088.00
2019-03-19T07:38:49.660Z,1092.00
2019-03-19T07:39:49.632Z,1096.00
2019-03-19T07:40:49.682Z,1108.00
2019-03-19T07:41:49.562Z,1120.00
2019-03-19T07:42:49.585Z,1128.00
2019-03-19T07:43:49.503Z,1136.00
2019-03-19T07:44:49.471Z,1140.00
2019-03-19T07:45:49.464Z,1148.00
2019-03-19T07:46:49.513Z,1160.00
2019-03-19T07:47:49.373Z,1164.00
2019-03-19T07:48:49.421Z,1172.00
2019-03-19T07:49:49.311Z,1184.00
2019-03-19T07:50:49.340Z,1188.00
2019-03-19T07:51:49.244Z,1192.00
2019-03-19T07:52:49.344Z,1196.00
2019-03-19T07:53:49.180Z,1212.00
2019-03-19T07:54:49.261Z,1220.00
2019-03-19T07:55:49.161Z,1228.00
2019-03-19T07:56:49.078Z,1232.00
2019-03-19T07:57:49.171Z,1236.00
2019-03-19T07:58:49.038Z,1244.00
2019-03-19T07:59:49.092Z,1248.00
2019-03-19T08:00:48.970Z,1232.00
2019-03-19T08:01:49.006Z,1264.00
2019-03-19T08:02:48.914Z,1276.00
2019-03-19T08:03:49.010Z,1284.00
2019-03-19T08:04:48.852Z,1292.00
2019-03-19T08:05:48.936Z,1292.00
2019-03-19T08:06:48.940Z,1300.00
2019-03-19T08:07:48.741Z,1300.00
2019-03-19T08:08:48.853Z,1312.00
2019-03-19T08:09:48.685Z,1316.00
2019-03-19T08:10:48.770Z,1324.00
2019-03-19T08:11:48.635Z,1332.00
2019-03-19T08:12:48.581Z,1340.00
2019-03-19T08:13:48.670Z,1344.00
2019-03-19T08:14:48.521Z,1348.00
2019-03-19T08:15:48.582Z,1352.00
2019-03-19T08:16:48.465Z,1356.00
2019-03-19T08:17:48.437Z,1368.00
2019-03-19T08:18:48.400Z,1380.00
2019-03-19T08:19:48.514Z,1392.00
2019-03-19T08:20:48.341Z,1396.00
2019-03-19T08:21:48.422Z,1408.00
2019-03-19T08:22:48.271Z,1416.00
2019-03-19T08:23:48.240Z,1424.00
2019-03-19T08:24:48.340Z,1432.00
2019-03-19T08:25:48.185Z,1444.00
2019-03-19T08:26:49.165Z,1456.00
2019-03-19T08:27:55.450Z,1468.00
2019-03-19T08:29:52.181Z,1492.00
2019-03-19T08:30:52.081Z,1508.00
2019-03-19T08:32:56.201Z,1520.00
2019-03-19T08:33:56.102Z,1528.00
2019-03-19T08:35:49.053Z,1556.00
2019-03-19T08:36:48.940Z,1572.00
2019-03-19T08:38:52.962Z,1596.00
2019-03-19T08:39:52.852Z,1604.00
2019-03-19T08:41:56.883Z,1608.00
2019-03-19T08:42:58.326Z,1612.00
2019-03-19T08:45:00.781Z,1632.00
2019-03-19T08:46:00.682Z,1640.00
2019-03-19T08:48:04.693Z,1648.00
2019-03-19T08:49:04.593Z,1648.00
2019-03-19T08:51:08.549Z,1668.00
2019-03-19T08:52:08.504Z,1684.00
2019-03-19T08:54:12.528Z,1704.00
2019-03-19T08:55:12.461Z,1716.00
2019-03-19T08:57:16.373Z,1744.00
2019-03-19T08:58:16.400Z,1760.00
2019-03-19T09:00:20.353Z,1788.00
2019-03-19T09:01:20.264Z,1812.00
2019-03-19T09:03:24.273Z,1844.00
2019-03-19T09:04:24.161Z,1852.00
2019-03-19T09:06:17.121Z,1880.00
2019-03-19T09:07:17.016Z,1896.00
2019-03-19T09:09:21.034Z,1920.00
2019-03-19T09:10:20.943Z,1936.00
2019-03-19T09:12:24.941Z,1960.00
2019-03-19T09:13:24.855Z,1976.00
2019-03-19T09:15:28.791Z,2004.00
2019-03-19T09:16:28.821Z,2012.00
2019-03-19T09:18:21.926Z,2064.00
2019-03-19T09:19:21.802Z,2080.00
2019-03-19T09:21:25.831Z,2136.00
2019-03-19T09:22:29.534Z,2160.00
2019-03-19T09:24:30.714Z,2204.00
2019-03-19T09:25:30.562Z,2248.00
2019-03-19T09:27:34.572Z,2352.00
2019-03-19T09:28:34.489Z,2400.00
2019-03-19T09:30:38.426Z,2456.00
2019-03-19T09:31:38.482Z,2468.00
2019-03-19T09:33:42.403Z,2508.00
2019-03-19T09:34:42.296Z,2528.00
2019-03-19T09:36:35.256Z,2568.00
2019-03-19T09:37:35.164Z,2580.00
2019-03-19T09:39:39.164Z,2620.00
2019-03-19T09:40:39.063Z,2648.00
2019-03-19T09:42:43.073Z,2704.00
2019-03-19T09:43:42.975Z,2724.00
2019-03-19T09:45:46.983Z,2776.00
2019-03-19T09:46:46.893Z,2792.00
2019-03-19T09:48:50.900Z,2796.00
2019-03-19T09:49:50.801Z,2800.00
2019-03-19T09:51:54.911Z,2836.00
2019-03-19T09:52:54.883Z,2844.00
2019-03-19T09:54:59.034Z,2856.00
2019-03-19T09:55:58.895Z,2864.00
2019-03-19T09:58:02.897Z,2884.00
2019-03-19T09:59:02.843Z,2892.00
2019-03-19T10:01:06.852Z,2920.00
2019-03-19T10:02:06.766Z,2932.00
2019-03-19T10:04:10.875Z,2960.00
2019-03-19T10:05:10.775Z,2972.00
2019-03-19T10:07:14.795Z,2992.00
2019-03-19T10:08:14.682Z,2996.00
2019-03-19T10:10:18.701Z,3012.00
2019-03-19T10:11:18.603Z,3028.00
2019-03-19T10:13:22.713Z,3060.00
2019-03-19T10:14:22.672Z,3080.00
2019-03-19T10:16:15.562Z,3136.00
2019-03-19T10:17:15.483Z,3160.00
2019-03-19T10:19:19.572Z,3200.00
2019-03-19T10:20:19.481Z,3224.00
2019-03-19T10:22:24.415Z,3284.00
2019-03-19T10:23:24.319Z,3316.00
2019-03-19T10:25:28.424Z,3364.00
2019-03-19T10:26:28.332Z,3384.00
2019-03-19T10:28:33.262Z,3404.00
2019-03-19T10:29:38.225Z,3412.00
2019-03-19T10:31:37.275Z,3452.00
2019-03-19T10:32:37.175Z,3456.00
2019-03-19T10:34:41.234Z,3484.00
2019-03-19T10:35:41.259Z,3492.00
2019-03-19T10:37:45.204Z,3524.00
2019-03-19T10:38:45.112Z,3540.00
2019-03-19T10:40:50.033Z,3560.00
2019-03-19T10:41:49.942Z,3576.00
2019-03-19T10:43:54.051Z,3600.00
2019-03-19T10:44:53.968Z,3620.00
2019-03-19T10:46:58.003Z,3616.00
2019-03-19T10:47:57.971Z,3620.00
2019-03-19T10:50:02.926Z,3632.00
2019-03-19T10:51:02.817Z,3652.00
2019-03-19T10:53:07.732Z,3680.00
2019-03-19T10:54:07.652Z,3700.00
2019-03-19T10:56:00.701Z,3768.00
2019-03-19T10:57:00.601Z,3808.00
2019-03-19T10:59:05.523Z,3852.00
2019-03-19T11:00:05.432Z,3868.00
2019-03-19T11:02:10.356Z,3916.00
2019-03-19T11:03:10.336Z,3944.00
2019-03-19T11:05:15.190Z,3988.00
2019-03-19T11:06:15.104Z,4012.00
2019-03-19T11:08:19.204Z,4048.00
2019-03-19T11:09:19.114Z,4044.00
2019-03-19T11:11:23.222Z,4104.00
2019-03-19T11:12:23.133Z,4128.00
2019-03-19T11:14:28.000Z,4180.00
2019-03-19T11:15:28.021Z,4208.00
2019-03-19T11:17:32.075Z,4168.00
2019-03-19T11:18:31.987Z,4224.00
2019-03-19T11:20:36.081Z,4300.00
2019-03-19T11:21:36.002Z,4332.00
2019-03-19T11:23:40.105Z,4376.00
2019-03-19T11:24:40.011Z,4416.00
2019-03-19T11:26:33.016Z,4488.00
2019-03-19T11:27:33.023Z,4552.00
2019-03-19T11:29:37.897Z,4680.00
2019-03-19T11:30:37.862Z,4752.00
2019-03-19T11:32:41.913Z,4840.00
2019-03-19T11:33:41.815Z,4496.00
2019-03-19T11:35:45.871Z,4980.00
2019-03-19T11:36:45.848Z,5172.00
2019-03-19T11:38:49.935Z,5468.00
2019-03-19T11:39:49.846Z,5532.00
2019-03-19T11:41:53.956Z,5416.00
2019-03-19T11:42:53.864Z,5296.00
2019-03-19T11:44:58.792Z,5244.00
2019-03-19T11:45:58.692Z,5232.00
2019-03-19T11:48:02.805Z,5268.00
2019-03-19T11:49:02.711Z,5292.00
2019-03-19T11:51:07.635Z,5444.00
2019-03-19T11:52:07.600Z,5488.00
2019-03-19T11:54:11.653Z,4392.00
2019-03-19T11:55:11.553Z,4608.00
2019-03-19T11:57:16.423Z,5744.00
2019-03-19T11:58:16.392Z,4424.00
2019-03-19T12:00:21.323Z,4184.00
2019-03-19T12:01:21.222Z,4184.00
2019-03-19T12:03:25.262Z,5680.00
2019-03-19T12:04:25.326Z,5724.00
2019-03-19T12:06:18.292Z,5964.00
2019-03-19T12:07:18.197Z,5928.00
2019-03-19T12:09:22.296Z,5912.00
2019-03-19T12:10:22.205Z,5852.00
2019-03-19T12:12:27.134Z,5728.00
2019-03-19T12:13:27.044Z,5576.00
2019-03-19T12:15:31.151Z,4444.00
2019-03-19T12:16:31.065Z,4976.00
2019-03-19T12:18:35.162Z,5144.00
2019-03-19T12:19:35.084Z,5172.00
2019-03-19T12:21:39.170Z,5360.00
2019-03-19T12:22:39.092Z,5432.00
2019-03-19T12:24:43.180Z,5720.00
2019-03-19T12:25:43.102Z,5728.00
2019-03-19T12:27:48.031Z,5688.00
2019-03-19T12:28:47.942Z,5356.00
2019-03-19T12:30:52.052Z,4568.00
2019-03-19T12:31:51.953Z,4564.00
2019-03-19T12:33:56.053Z,4504.00
2019-03-19T12:34:55.972Z,4428.00
2019-03-19T12:37:00.076Z,4324.00
2019-03-19T12:37:59.981Z,4276.00
2019-03-19T12:40:04.091Z,4196.00
2019-03-19T12:41:03.999Z,4184.00
2019-03-19T12:43:08.100Z,4260.00
2019-03-19T12:44:08.017Z,4132.00
2019-03-19T12:46:01.063Z,3936.00
2019-03-19T12:47:00.963Z,4280.00
2019-03-19T12:49:05.084Z,4544.00
2019-03-19T12:50:04.983Z,4392.00
2019-03-19T12:52:09.091Z,4492.00
2019-03-19T12:53:09.075Z,4464.00
2019-03-19T12:55:13.112Z,4556.00
2019-03-19T12:56:13.013Z,4612.00
2019-03-19T12:58:17.069Z,4140.00
2019-03-19T12:59:20.502Z,3748.00
2019-03-19T13:01:21.259Z,3404.00
2019-03-19T13:02:21.041Z,3184.00
2019-03-19T13:04:25.140Z,2856.00
2019-03-19T13:05:25.052Z,2768.00
2019-03-19T13:07:29.979Z,2652.00
2019-03-19T13:08:29.884Z,2520.00
2019-03-19T13:10:34.815Z,2048.00
2019-03-19T13:11:34.721Z,2164.00
2019-03-19T13:13:40.973Z,1644.00
2019-03-19T13:14:39.608Z,1524.00
2019-03-19T13:16:32.510Z,1356.00
2019-03-19T13:17:32.410Z,1328.00
2019-03-19T13:19:36.521Z,1300.00
2019-03-19T13:20:36.420Z,1296.00
2019-03-19T13:22:40.474Z,1304.00
2019-03-19T13:23:40.439Z,1316.00
2019-03-19T13:25:44.396Z,1364.00
2019-03-19T13:26:44.351Z,1404.00
2019-03-19T13:27:44.423Z,1428.00
2019-03-19T13:28:44.315Z,1448.00
2019-03-19T13:29:44.334Z,1456.00
2019-03-19T13:30:45.511Z,1480.00
2019-03-19T13:31:44.252Z,1508.00
2019-03-19T13:32:44.247Z,1544.00
2019-03-19T13:33:44.191Z,1588.00
2019-03-19T13:34:44.274Z,1652.00
2019-03-19T13:35:44.151Z,1708.00
2019-03-19T13:36:44.130Z,1764.00
2019-03-19T13:37:44.114Z,1788.00
2019-03-19T13:38:44.191Z,1764.00
2019-03-19T13:39:44.061Z,1728.00
2019-03-19T13:40:44.103Z,1688.00
2019-03-19T13:41:44.021Z,1640.00
2019-03-19T13:42:43.991Z,1608.00
2019-03-19T13:43:44.032Z,1580.00
2019-03-19T13:44:43.952Z,1564.00
2019-03-19T13:45:44.044Z,1552.00
2019-03-19T13:46:43.901Z,1536.00
2019-03-19T13:47:43.881Z,1516.00
2019-03-19T13:48:43.872Z,1496.00
2019-03-19T13:49:43.860Z,1472.00
2019-03-19T13:50:43.831Z,1464.00
2019-03-19T13:51:43.881Z,1464.00
2019-03-19T13:52:43.772Z,1472.00
2019-03-19T13:53:43.744Z,1468.00
2019-03-19T13:54:43.720Z,1456.00
2019-03-19T13:55:43.800Z,1460.00
2019-03-19T13:56:43.732Z,1472.00
2019-03-19T13:57:43.721Z,1492.00
2019-03-19T13:58:43.669Z,1504.00
2019-03-19T13:59:43.621Z,1516.00
2019-03-19T14:00:43.737Z,1504.00
2019-03-19T14:01:43.559Z,1540.00
2019-03-19T14:02:43.656Z,1516.00
2019-03-19T14:03:43.520Z,1496.00
2019-03-19T14:04:43.537Z,1464.00
2019-03-19T14:05:43.472Z,1484.00
2019-03-19T14:06:43.570Z,1852.00
2019-03-19T14:07:43.420Z,2616.00
2019-03-19T14:08:43.502Z,2660.00
2019-03-19T14:09:43.416Z,2720.00
2019-03-19T14:10:43.363Z,2756.00
2019-03-19T14:11:43.331Z,2628.00
2019-03-19T14:12:43.415Z,2536.00
2019-03-19T14:13:43.278Z,2088.00
2019-03-19T14:14:43.318Z,1912.00
2019-03-19T14:15:43.249Z,1832.00
2019-03-19T14:16:43.221Z,1756.00
2019-03-19T14:17:43.281Z,1800.00
2019-03-19T14:18:43.170Z,1604.00
2019-03-19T14:19:43.250Z,1628.00
2019-03-19T14:20:43.130Z,1548.00
2019-03-19T14:21:43.104Z,1476.00
2019-03-19T14:22:45.182Z,1508.00
2019-03-19T14:23:43.086Z,1876.00
2019-03-19T14:24:43.030Z,1760.00
2019-03-19T14:25:43.091Z,1760.00
2019-03-19T14:26:42.991Z,1616.00
2019-03-19T14:27:42.963Z,1696.00
2019-03-19T14:28:43.013Z,1780.00
2019-03-19T14:29:42.912Z,2072.00
2019-03-19T14:30:42.941Z,1488.00
2019-03-19T14:31:42.874Z,1492.00
2019-03-19T14:32:42.930Z,1408.00
2019-03-19T14:33:42.819Z,1384.00
2019-03-19T14:34:42.852Z,1360.00
2019-03-19T14:35:42.780Z,1336.00
2019-03-19T14:36:42.860Z,1264.00
2019-03-19T14:37:42.729Z,1260.00
2019-03-19T14:38:47.136Z,1244.00
2019-03-19T14:39:42.782Z,1220.00
2019-03-19T14:40:42.660Z,1180.00
2019-03-19T14:41:42.690Z,1124.00
2019-03-19T14:42:42.611Z,1080.00
2019-03-19T14:43:42.701Z,1040.00
2019-03-19T14:44:42.574Z,992.00
2019-03-19T14:45:42.625Z,944.00
2019-03-19T14:46:42.520Z,896.00
2019-03-19T14:47:42.531Z,856.00
2019-03-19T14:48:42.474Z,820.00
2019-03-19T14:49:46.541Z,788.00
2019-03-19T14:50:42.441Z,756.00
2019-03-19T14:51:42.454Z,724.00
2019-03-19T14:52:43.938Z,696.00
2019-03-19T14:53:42.471Z,672.00
2019-03-19T14:54:42.331Z,660.00
2019-03-19T14:55:42.331Z,648.00
2019-03-19T14:56:42.414Z,636.00
2019-03-19T14:57:42.274Z,624.00
2019-03-19T14:58:42.302Z,612.00
2019-03-19T14:59:42.221Z,600.00
2019-03-19T15:00:42.196Z,592.00
2019-03-19T15:01:42.172Z,584.00
2019-03-19T15:02:42.232Z,580.00
2019-03-19T15:03:42.120Z,572.00
2019-03-19T15:04:42.140Z,564.00
2019-03-19T15:05:42.070Z,552.00
2019-03-19T15:06:42.052Z,540.00
2019-03-19T15:07:42.052Z,536.00
2019-03-19T15:08:42.000Z,532.00
2019-03-19T15:09:42.073Z,536.00
2019-03-19T15:10:41.982Z,540.00